createdAt,value
2023-04-27T04:15:51.825Z,99447.91
2023-04-27T04:16:54.222Z,99453.03
2023-04-27T04:17:56.587Z,99456.16
2023-04-27T04:19:04.322Z,99461.06
2023-04-27T04:20:11.832Z,99455.75
2023-04-27T04:21:14.019Z,99451.34
2023-04-27T04:22:16.004Z,99455.94
2023-04-27T04:23:17.942Z,99456.44
2023-04-27T04:24:21.922Z,99453.56
2023-04-27T04:25:26.246Z,99446.59
2023-04-27T04:26:28.598Z,99449.72
2023-04-27T04:27:31.925Z,99451.19
2023-04-27T04:28:36.092Z,99466.03
2023-04-27T04:29:39.374Z,99467.34
2023-04-27T04:30:41.298Z,99462.09
2023-04-27T04:31:44.047Z,99470.22
2023-04-27T04:32:46.336Z,99467.47
2023-04-27T04:33:48.637Z,99471.66
2023-04-27T04:34:51.616Z,99473.78
2023-04-27T04:35:55.669Z,99471.72
2023-04-27T04:36:58.234Z,99472.06
2023-04-27T04:38:00.939Z,99471.38
2023-04-27T04:39:05.748Z,99468.44
2023-04-27T04:40:09.231Z,99479.41
2023-04-27T04:41:12.026Z,99477.50
2023-04-27T04:42:14.163Z,99464.88
2023-04-27T04:43:17.400Z,99473.84
2023-04-27T04:44:46.239Z,99486.56
2023-04-27T04:45:49.218Z,99473.59
2023-04-27T04:46:51.424Z,99480.25
2023-04-27T04:47:54.704Z,99475.78
2023-04-27T04:48:57.189Z,99479.31
2023-04-27T04:49:59.200Z,99482.19
2023-04-27T04:51:04.623Z,99479.69
2023-04-27T04:52:06.713Z,99481.41
2023-04-27T04:53:08.643Z,99482.66
2023-04-27T04:54:11.586Z,99487.94
2023-04-27T04:55:13.851Z,99480.69
2023-04-27T04:56:16.958Z,99486.91
2023-04-27T04:57:19.091Z,99481.47
2023-04-27T04:58:21.859Z,99487.94
2023-04-27T04:59:24.083Z,99481.19
2023-04-27T05:00:26.455Z,99486.91
2023-04-27T05:01:28.431Z,99490.13
2023-04-27T05:02:31.297Z,99486.56
2023-04-27T05:03:33.765Z,99486.84
2023-04-27T05:04:36.078Z,99488.16
2023-04-27T05:05:38.386Z,99491.63
2023-04-27T05:06:40.749Z,99491.28
2023-04-27T05:07:43.258Z,99485.94
2023-04-27T05:08:45.916Z,99489.25
2023-04-27T05:09:47.963Z,99489.19
2023-04-27T05:10:51.397Z,99484.97
2023-04-27T05:11:53.347Z,99499.31
2023-04-27T05:12:55.413Z,99494.22
2023-04-27T05:13:57.615Z,99491.69
2023-04-27T05:14:59.463Z,99496.41
2023-04-27T05:16:05.491Z,99494.94
2023-04-27T05:17:08.006Z,99490.44
2023-04-27T05:18:09.944Z,99497.41
2023-04-27T05:19:12.431Z,99494.59
2023-04-27T05:20:14.703Z,99498.53
2023-04-27T05:21:17.770Z,99496.44
2023-04-27T05:22:19.740Z,99493.41
2023-04-27T05:23:21.592Z,99500.13
2023-04-27T05:24:23.762Z,99497.50
2023-04-27T05:25:25.634Z,99494.28
2023-04-27T05:26:27.502Z,99491.59
2023-04-27T05:27:29.570Z,99492.97
2023-04-27T05:28:31.434Z,99503.81
2023-04-27T05:29:35.316Z,99490.59
2023-04-27T05:30:37.922Z,99502.13
2023-04-27T05:31:39.734Z,99493.69
2023-04-27T05:32:41.784Z,99494.63
2023-04-27T05:33:44.734Z,99508.47
2023-04-27T05:34:49.317Z,99510.41
2023-04-27T05:35:51.781Z,99503.88
2023-04-27T05:36:53.653Z,99501.06
2023-04-27T05:37:55.675Z,99505.25
2023-04-27T05:38:59.833Z,99505.78
2023-04-27T05:40:01.720Z,99495.41
2023-04-27T05:41:06.048Z,99498.25
2023-04-27T05:42:07.870Z,99508.16
2023-04-27T05:43:09.698Z,99513.63
2023-04-27T05:44:12.634Z,99507.78
2023-04-27T05:45:14.572Z,99507.72
2023-04-27T05:46:17.052Z,99507.16
2023-04-27T05:47:19.040Z,99510.66
2023-04-27T05:48:21.203Z,99506.94
2023-04-27T05:49:24.251Z,99502.22
2023-04-27T05:50:26.157Z,99495.47
2023-04-27T05:51:28.839Z,99501.25
2023-04-27T05:52:31.355Z,99502.19
2023-04-27T05:53:34.786Z,99504.41
2023-04-27T05:54:37.817Z,99508.97
2023-04-27T05:55:39.713Z,99502.50
2023-04-27T05:56:41.604Z,99501.78
2023-04-27T05:57:44.026Z,99497.66
2023-04-27T05:58:46.193Z,99499.09
2023-04-27T05:59:48.093Z,99504.53
2023-04-27T06:00:50.543Z,99501.72
2023-04-27T06:01:52.907Z,99502.75
2023-04-27T06:02:54.981Z,99501.44
2023-04-27T06:04:01.430Z,99501.56
2023-04-27T06:05:03.930Z,99511.25
2023-04-27T06:06:06.058Z,99510.13
2023-04-27T06:07:11.233Z,99502.31
2023-04-27T06:08:13.270Z,99508.19
2023-04-27T06:09:15.706Z,99504.69
2023-04-27T06:10:18.108Z,99508.19
2023-04-27T06:11:19.889Z,99508.31
2023-04-27T06:12:21.955Z,99505.13
2023-04-27T06:13:23.812Z,99515.22
2023-04-27T06:14:26.074Z,99509.78
2023-04-27T06:15:27.872Z,99505.75
2023-04-27T06:16:29.860Z,99512.41
2023-04-27T06:17:34.398Z,99506.69
2023-04-27T06:18:36.455Z,99509.13
2023-04-27T06:19:53.072Z,99512.69
2023-04-27T06:21:00.747Z,99505.38
2023-04-27T06:22:04.184Z,99516.19
2023-04-27T06:28:24.606Z,99512.63
2023-04-27T06:29:57.844Z,99517.44
2023-04-27T06:32:50.602Z,99515.09
2023-04-27T06:39:31.130Z,99518.41
2023-04-27T06:43:44.078Z,99523.41
2023-04-27T06:44:45.928Z,99527.75
2023-04-27T06:45:47.965Z,99521.94
2023-04-27T06:46:50.461Z,99522.50
2023-04-27T06:47:52.640Z,99532.69
2023-04-27T06:48:55.906Z,99525.72
2023-04-27T06:49:58.083Z,99525.28
2023-04-27T06:51:03.063Z,99516.69
2023-04-27T06:52:14.558Z,99515.34
2023-04-27T06:53:18.477Z,99517.84
2023-04-27T06:54:22.923Z,99523.63
2023-04-27T06:55:25.343Z,99523.06
2023-04-27T06:56:27.485Z,99520.41
2023-04-27T06:58:46.761Z,99513.69
2023-04-27T06:59:51.126Z,99518.00
2023-04-27T07:00:53.568Z,99519.31
2023-04-27T07:01:55.647Z,99516.63
2023-04-27T07:02:57.716Z,99523.16
2023-04-27T07:04:04.295Z,99516.00
2023-04-27T07:05:13.566Z,99516.44
2023-04-27T07:06:18.820Z,99527.13
2023-04-27T07:07:21.658Z,99519.38
2023-04-27T07:08:29.685Z,99524.94
2023-04-27T07:09:58.755Z,99523.06
2023-04-27T07:11:03.461Z,99518.75
2023-04-27T07:12:10.500Z,99512.72
2023-04-27T07:13:19.697Z,99515.09
2023-04-27T07:15:45.853Z,99524.00
2023-04-27T07:18:14.625Z,99516.94
2023-04-27T07:22:00.183Z,99509.81
2023-04-27T07:25:10.647Z,99514.13
2023-04-27T07:26:30.625Z,99517.88
2023-04-27T07:27:35.943Z,99529.59
2023-04-27T07:28:39.664Z,99519.06
2023-04-27T07:29:42.774Z,99521.53
2023-04-27T07:32:01.068Z,99518.91
2023-04-27T07:33:03.667Z,99524.19
2023-04-27T07:34:11.535Z,99518.66
2023-04-27T07:35:18.036Z,99520.13
2023-04-27T07:36:20.593Z,99511.91
2023-04-27T07:37:26.719Z,99519.25
2023-04-27T07:38:32.234Z,99518.63
2023-04-27T07:39:38.875Z,99525.94
2023-04-27T07:40:43.181Z,99518.34
2023-04-27T07:41:50.697Z,99509.94
2023-04-27T07:44:12.707Z,99528.03
2023-04-27T07:45:39.052Z,99520.19
2023-04-27T07:46:44.814Z,99518.44
2023-04-27T07:47:50.860Z,99520.00
2023-04-27T07:48:55.294Z,99522.69
2023-04-27T07:49:57.971Z,99525.03
2023-04-27T07:51:00.530Z,99528.59
2023-04-27T07:52:05.821Z,99522.09
2023-04-27T07:53:12.209Z,99522.41
2023-04-27T07:55:06.965Z,99521.22
2023-04-27T07:56:10.259Z,99533.56
2023-04-27T07:57:16.075Z,99527.03
2023-04-27T07:58:22.456Z,99527.97
2023-04-27T07:59:54.027Z,99523.59
2023-04-27T08:04:51.048Z,99504.47
2023-04-27T08:07:12.895Z,99516.25
2023-04-27T08:08:22.988Z,99516.19
2023-04-27T08:10:42.666Z,99510.38
2023-04-27T08:11:58.829Z,99514.66
2023-04-27T08:13:03.296Z,99515.88
2023-04-27T08:14:07.846Z,99506.38
2023-04-27T08:15:16.814Z,99509.78
2023-04-27T08:16:20.381Z,99507.09
2023-04-27T08:17:26.255Z,99512.44
2023-04-27T08:18:35.416Z,99507.56
2023-04-27T08:20:06.959Z,99513.75
2023-04-27T08:21:10.180Z,99510.59
2023-04-27T08:22:14.035Z,99501.38
2023-04-27T08:23:16.508Z,99507.59
2023-04-27T08:24:21.281Z,99514.53
2023-04-27T08:25:29.133Z,99510.25
2023-04-27T08:26:31.887Z,99504.78
2023-04-27T08:27:34.861Z,99508.00
2023-04-27T08:28:50.659Z,99507.84
2023-04-27T08:29:55.589Z,99509.81
2023-04-27T08:31:00.727Z,99510.38
2023-04-27T08:32:05.230Z,99512.28
2023-04-27T08:33:10.129Z,99513.72
2023-04-27T08:34:13.941Z,99515.69
2023-04-27T08:35:20.681Z,99508.44
2023-04-27T08:36:29.098Z,99517.31
2023-04-27T08:37:32.484Z,99510.88
2023-04-27T08:38:40.678Z,99511.88
2023-04-27T08:39:47.748Z,99499.94
2023-04-27T08:40:54.980Z,99504.94
2023-04-27T08:42:07.993Z,99499.03
2023-04-27T08:43:13.701Z,99497.00
2023-04-27T08:44:16.402Z,99503.75
2023-04-27T08:45:23.288Z,99496.34
2023-04-27T08:46:28.618Z,99500.59
2023-04-27T08:48:52.001Z,99499.34
2023-04-27T08:49:58.602Z,99489.97
2023-04-27T08:52:27.922Z,99501.41
2023-04-27T08:53:32.957Z,99505.28
2023-04-27T08:57:16.668Z,99495.44
2023-04-27T08:59:40.650Z,99504.44
2023-04-27T09:00:46.262Z,99512.88
2023-04-27T09:02:15.261Z,99504.75
2023-04-27T09:03:26.568Z,99509.72
2023-04-27T09:04:40.622Z,99508.06
2023-04-27T09:10:49.138Z,99504.34
2023-04-27T09:14:27.116Z,99502.28
2023-04-27T09:15:57.651Z,99513.47
2023-04-27T09:18:35.698Z,99501.16
2023-04-27T09:19:39.285Z,99502.16
2023-04-27T09:22:47.726Z,99503.53
2023-04-27T09:28:33.088Z,99508.53
2023-04-27T09:41:11.526Z,99485.28
2023-04-27T09:43:37.379Z,99487.63
2023-04-27T09:44:41.808Z,99488.75
2023-04-27T09:45:44.696Z,99487.78
2023-04-27T09:46:50.977Z,99488.59
2023-04-27T09:48:07.039Z,99495.69
2023-04-27T09:49:31.865Z,99484.81
2023-04-27T09:51:59.051Z,99491.94
2023-04-27T09:54:18.405Z,99495.66
2023-04-27T09:57:08.739Z,99497.41
2023-04-27T09:58:40.161Z,99493.91
2023-04-27T10:03:30.586Z,99502.44
2023-04-27T10:05:13.514Z,99499.72
2023-04-27T10:07:43.016Z,99490.34
2023-04-27T10:08:46.055Z,99499.31
2023-04-27T10:11:20.857Z,99494.44
2023-04-27T10:12:34.068Z,99502.97
2023-04-27T10:13:38.297Z,99499.91
2023-04-27T10:15:15.839Z,99500.50
2023-04-27T10:18:56.644Z,99492.94
2023-04-27T10:21:38.179Z,99491.75
2023-04-27T10:22:55.760Z,99491.19
2023-04-27T10:24:10.884Z,99495.75
2023-04-27T10:25:20.502Z,99500.63
2023-04-27T10:26:27.829Z,99495.75
2023-04-27T10:27:39.816Z,99495.22
2023-04-27T10:30:22.816Z,99500.25
2023-04-27T10:31:32.309Z,99495.50
2023-04-27T10:32:38.083Z,99495.81
2023-04-27T10:33:46.594Z,99487.91
2023-04-27T10:35:07.156Z,99487.31
2023-04-27T10:36:20.339Z,99488.13
2023-04-27T10:41:07.813Z,99493.66
2023-04-27T10:42:14.684Z,99495.06
2023-04-27T10:43:25.903Z,99490.84
2023-04-27T10:44:31.737Z,99491.41
2023-04-27T10:45:37.900Z,99490.09
2023-04-27T10:46:52.782Z,99486.03
2023-04-27T10:48:01.360Z,99490.09
2023-04-27T10:49:05.991Z,99486.97
2023-04-27T10:50:14.658Z,99499.81
2023-04-27T10:54:06.945Z,99496.53
2023-04-27T10:55:22.879Z,99509.13
2023-04-27T10:56:25.398Z,99501.31
2023-04-27T10:57:27.731Z,99508.22
2023-04-27T10:58:45.334Z,99518.13
2023-04-27T10:59:56.665Z,99515.88
2023-04-27T11:00:59.790Z,99518.22
2023-04-27T11:02:03.428Z,99514.91
2023-04-27T11:03:19.912Z,99527.91
2023-04-27T11:04:22.463Z,99518.69
2023-04-27T11:05:33.651Z,99516.34
2023-04-27T11:06:43.077Z,99529.97
2023-04-27T11:07:47.364Z,99530.75
2023-04-27T11:08:50.102Z,99529.44
2023-04-27T11:09:53.700Z,99531.31
2023-04-27T11:10:57.769Z,99531.59
2023-04-27T11:11:59.932Z,99526.44
2023-04-27T11:13:10.478Z,99532.94
2023-04-27T11:14:20.474Z,99540.44
2023-04-27T11:15:22.737Z,99543.81
2023-04-27T11:16:24.781Z,99536.84
2023-04-27T11:17:31.100Z,99537.59
2023-04-27T11:18:33.873Z,99552.44
2023-04-27T11:19:47.368Z,99546.63
2023-04-27T11:20:52.633Z,99544.56
2023-04-27T11:22:08.868Z,99538.59
2023-04-27T11:23:15.060Z,99547.25
2023-04-27T11:24:17.460Z,99551.97
2023-04-27T11:25:30.620Z,99540.81
2023-04-27T11:26:33.498Z,99541.03
2023-04-27T11:27:43.300Z,99543.38
2023-04-27T11:28:59.912Z,99545.53
2023-04-27T11:30:27.530Z,99545.88
2023-04-27T11:31:40.759Z,99541.91
2023-04-27T11:32:43.145Z,99545.47
2023-04-27T11:33:52.131Z,99561.16
2023-04-27T11:35:20.332Z,99554.63
2023-04-27T11:36:26.691Z,99557.16
2023-04-27T11:37:32.019Z,99548.69
2023-04-27T11:38:37.450Z,99558.09
2023-04-27T11:39:43.967Z,99556.81
2023-04-27T11:41:05.562Z,99554.53
2023-04-27T11:42:25.211Z,99548.44
2023-04-27T11:43:28.626Z,99555.63
2023-04-27T11:44:31.148Z,99549.53
2023-04-27T11:45:34.828Z,99558.91
2023-04-27T11:46:40.764Z,99553.25
2023-04-27T11:47:48.252Z,99551.88
2023-04-27T11:48:52.742Z,99544.34
2023-04-27T11:49:57.264Z,99546.41
2023-04-27T11:51:00.676Z,99541.56
2023-04-27T11:52:02.932Z,99545.75
2023-04-27T11:53:04.910Z,99540.13
2023-04-27T11:54:07.885Z,99541.22
2023-04-27T11:55:16.404Z,99532.78
2023-04-27T11:56:20.983Z,99535.13
2023-04-27T11:57:29.546Z,99535.31
2023-04-27T11:58:39.116Z,99534.38
2023-04-27T11:59:42.045Z,99526.22
2023-04-27T12:01:10.837Z,99530.56
2023-04-27T12:02:17.561Z,99524.97
2023-04-27T12:03:23.018Z,99522.75
2023-04-27T12:04:26.704Z,99524.00
2023-04-27T12:05:30.524Z,99524.59
2023-04-27T12:06:34.099Z,99522.13
2023-04-27T12:07:38.187Z,99516.97
2023-04-27T12:08:40.600Z,99529.47
2023-04-27T12:09:43.572Z,99519.13
2023-04-27T12:10:46.974Z,99518.97
2023-04-27T12:11:51.198Z,99524.31
2023-04-27T12:12:53.546Z,99525.81
2023-04-27T12:15:18.731Z,99513.94
2023-04-27T12:16:23.289Z,99514.91
2023-04-27T12:17:26.793Z,99500.22
2023-04-27T12:18:28.891Z,99507.25
2023-04-27T12:19:31.525Z,99506.94
2023-04-27T12:20:38.692Z,99512.41
2023-04-27T12:21:46.201Z,99496.13
2023-04-27T12:22:48.620Z,99508.50
2023-04-27T12:23:50.830Z,99507.72
2023-04-27T12:24:52.942Z,99510.50
2023-04-27T12:25:55.022Z,99510.66
2023-04-27T12:26:57.664Z,99504.38
2023-04-27T12:29:20.618Z,99506.41
2023-04-27T12:30:27.390Z,99505.31
2023-04-27T12:31:29.406Z,99501.59
2023-04-27T12:32:31.914Z,99495.81
2023-04-27T12:33:37.038Z,99498.03
2023-04-27T12:34:42.517Z,99506.78
2023-04-27T12:35:48.458Z,99502.50
2023-04-27T12:37:00.910Z,99508.28
2023-04-27T12:39:26.821Z,99493.31
2023-04-27T12:40:31.680Z,99492.06
2023-04-27T12:41:33.728Z,99498.59
2023-04-27T12:42:39.036Z,99492.66
2023-04-27T12:43:41.336Z,99494.22
2023-04-27T12:44:43.530Z,99495.16
2023-04-27T12:45:45.975Z,99495.16
2023-04-27T12:46:50.224Z,99498.00
2023-04-27T12:49:12.827Z,99486.13
2023-04-27T12:50:16.098Z,99495.00
2023-04-27T12:51:18.725Z,99484.25
2023-04-27T12:52:21.029Z,99488.31
2023-04-27T12:53:25.091Z,99494.25
2023-04-27T12:54:28.224Z,99489.09
2023-04-27T12:55:34.489Z,99491.47
2023-04-27T12:56:36.999Z,99487.06
2023-04-27T12:57:39.081Z,99499.84
2023-04-27T12:58:44.161Z,99493.41
2023-04-27T12:59:47.317Z,99496.69
2023-04-27T13:00:50.619Z,99497.78
2023-04-27T13:01:53.234Z,99496.09
2023-04-27T13:02:56.861Z,99497.47
2023-04-27T13:04:01.513Z,99497.78
2023-04-27T13:05:04.861Z,99490.13
2023-04-27T13:06:08.408Z,99492.84
2023-04-27T13:07:10.660Z,99496.09
2023-04-27T13:08:12.761Z,99484.75
2023-04-27T13:09:15.115Z,99490.13
2023-04-27T13:10:20.919Z,99485.25
2023-04-27T13:11:24.320Z,99482.50
2023-04-27T13:12:26.394Z,99490.59
2023-04-27T13:13:28.505Z,99486.69
2023-04-27T13:14:32.333Z,99487.94
2023-04-27T13:15:35.304Z,99492.03
2023-04-27T13:16:38.763Z,99487.03
2023-04-27T13:17:43.501Z,99487.97
2023-04-27T13:18:49.512Z,99486.41
2023-04-27T13:19:51.582Z,99480.44
2023-04-27T13:20:54.934Z,99477.03
2023-04-27T13:21:57.124Z,99481.09
2023-04-27T13:22:59.347Z,99485.78
2023-04-27T13:24:04.250Z,99488.16
2023-04-27T13:25:07.940Z,99477.34
2023-04-27T13:26:11.451Z,99473.59
2023-04-27T13:27:14.206Z,99476.88
2023-04-27T13:28:16.579Z,99471.13
2023-04-27T13:29:18.887Z,99485.16
2023-04-27T13:30:21.141Z,99481.41
2023-04-27T13:31:23.420Z,99488.91
2023-04-27T13:32:25.739Z,99475.16
2023-04-27T13:33:27.929Z,99485.78
2023-04-27T13:34:30.455Z,99477.34
2023-04-27T13:35:33.913Z,99489.84
2023-04-27T13:36:35.855Z,99495.81
2023-04-27T13:37:40.925Z,99494.25
2023-04-27T13:38:43.018Z,99485.47
2023-04-27T13:39:45.038Z,99493.94
2023-04-27T13:40:48.137Z,99482.81
2023-04-27T13:41:50.400Z,99480.91
2023-04-27T13:42:53.155Z,99480.47
2023-04-27T13:43:55.165Z,99480.47
2023-04-27T13:44:57.355Z,99486.88
2023-04-27T13:46:05.023Z,99481.72
2023-04-27T13:47:08.326Z,99477.81
2023-04-27T13:48:10.998Z,99484.25
2023-04-27T13:49:13.077Z,99487.06
2023-04-27T13:50:15.686Z,99487.66
2023-04-27T13:51:20.089Z,99488.72
2023-04-27T13:52:22.211Z,99479.19
2023-04-27T13:53:27.497Z,99487.03
2023-04-27T13:54:29.650Z,99481.25
2023-04-27T13:55:37.309Z,99476.25
2023-04-27T13:56:39.372Z,99472.47
2023-04-27T13:57:41.745Z,99480.47
2023-04-27T13:58:43.821Z,99470.44
2023-04-27T13:59:45.921Z,99477.47
2023-04-27T14:00:49.228Z,99482.00
2023-04-27T14:01:51.420Z,99477.97
2023-04-27T14:02:53.777Z,99495.78
2023-04-27T14:03:56.434Z,99485.75
2023-04-27T14:04:58.933Z,99485.88
2023-04-27T14:06:02.518Z,99486.69
2023-04-27T14:07:05.171Z,99481.97
2023-04-27T14:08:07.403Z,99490.56
2023-04-27T14:09:09.701Z,99480.69
2023-04-27T14:10:11.667Z,99483.00
2023-04-27T14:11:19.112Z,99483.91
2023-04-27T14:12:21.106Z,99487.81
2023-04-27T14:13:23.141Z,99481.56
2023-04-27T14:14:25.307Z,99486.56
2023-04-27T14:15:29.012Z,99491.22
2023-04-27T14:16:31.408Z,99476.84
2023-04-27T14:17:33.416Z,99485.00
2023-04-27T14:18:36.523Z,99482.97
2023-04-27T14:19:38.554Z,99480.03
2023-04-27T14:20:42.247Z,99485.03
2023-04-27T14:21:44.369Z,99486.09
2023-04-27T14:22:46.841Z,99486.09
2023-04-27T14:23:48.781Z,99478.00
2023-04-27T14:24:50.739Z,99484.09
2023-04-27T14:25:57.609Z,99481.63
2023-04-27T14:27:00.433Z,99486.59
2023-04-27T14:28:06.022Z,99468.75
2023-04-27T14:29:12.537Z,99479.38
2023-04-27T14:30:17.044Z,99485.47
2023-04-27T14:31:22.240Z,99474.97
2023-04-27T14:32:25.297Z,99472.66
2023-04-27T14:33:27.593Z,99468.88
2023-04-27T14:34:30.055Z,99477.50
2023-04-27T14:35:34.907Z,99474.06
2023-04-27T14:36:37.229Z,99479.69
2023-04-27T14:37:41.044Z,99481.28
2023-04-27T14:38:44.880Z,99475.78
2023-04-27T14:39:47.040Z,99475.50
2023-04-27T14:40:49.238Z,99469.09
2023-04-27T14:41:51.147Z,99474.09
2023-04-27T14:42:53.100Z,99478.94
2023-04-27T14:43:55.451Z,99477.22
2023-04-27T14:44:57.347Z,99471.59
2023-04-27T14:46:19.203Z,99469.09
2023-04-27T14:47:22.808Z,99476.31
2023-04-27T14:48:25.038Z,99475.88
2023-04-27T14:49:27.044Z,99471.94
2023-04-27T14:50:28.994Z,99469.41
2023-04-27T14:51:32.697Z,99465.81
2023-04-27T14:52:34.791Z,99472.22
2023-04-27T14:53:37.026Z,99472.56
2023-04-27T14:54:39.572Z,99471.28
2023-04-27T14:55:45.928Z,99476.59
2023-04-27T14:56:48.100Z,99466.88
2023-04-27T14:57:50.299Z,99470.66
2023-04-27T14:58:52.467Z,99474.72
2023-04-27T14:59:54.591Z,99469.75
2023-04-27T15:01:02.343Z,99473.88
2023-04-27T15:02:04.944Z,99476.56
2023-04-27T15:03:07.322Z,99470.31
2023-04-27T15:04:12.911Z,99465.31
2023-04-27T15:05:14.999Z,99472.03
2023-04-27T15:06:18.083Z,99470.94
2023-04-27T15:07:21.630Z,99483.13
2023-04-27T15:08:23.597Z,99479.97
2023-04-27T15:09:25.596Z,99475.94
2023-04-27T15:10:27.604Z,99474.38
2023-04-27T15:11:30.971Z,99474.03
2023-04-27T15:12:32.999Z,99471.50
2023-04-27T15:13:35.689Z,99470.31
2023-04-27T15:14:37.474Z,99471.59
2023-04-27T15:15:40.730Z,99475.31
2023-04-27T15:16:42.624Z,99472.03
2023-04-27T15:17:44.419Z,99469.69
2023-04-27T15:18:46.270Z,99471.22
2023-04-27T15:19:48.253Z,99464.34
2023-04-27T15:20:52.662Z,99466.81
2023-04-27T15:21:54.491Z,99467.72
2023-04-27T15:22:56.396Z,99471.00
2023-04-27T15:23:58.385Z,99466.78
2023-04-27T15:25:00.434Z,99469.16
2023-04-27T15:26:02.864Z,99471.75
2023-04-27T15:27:04.780Z,99468.03
2023-04-27T15:28:06.619Z,99468.94
2023-04-27T15:29:08.519Z,99468.31
2023-04-27T15:30:10.798Z,99477.03
2023-04-27T15:31:13.026Z,99468.13
2023-04-27T15:32:16.296Z,99468.44
2023-04-27T15:33:18.834Z,99469.22
2023-04-27T15:34:21.189Z,99465.66
2023-04-27T15:35:23.092Z,99468.31
2023-04-27T15:36:28.417Z,99474.50
2023-04-27T15:37:30.542Z,99475.44
2023-04-27T15:38:32.362Z,99479.16
2023-04-27T15:39:34.193Z,99479.34
2023-04-27T15:40:36.183Z,99475.59
2023-04-27T15:41:38.222Z,99468.22
2023-04-27T15:42:40.069Z,99468.22
2023-04-27T15:43:42.109Z,99475.38
2023-04-27T15:44:44.021Z,99479.47
2023-04-27T15:45:46.185Z,99486.63
2023-04-27T15:46:48.174Z,99479.00
2023-04-27T15:47:50.225Z,99485.72
2023-04-27T15:48:52.334Z,99485.25
2023-04-27T15:49:57.974Z,99482.72
2023-04-27T15:51:01.121Z,99477.09
2023-04-27T15:52:03.714Z,99483.50
2023-04-27T15:53:05.580Z,99486.00
2023-04-27T15:54:07.468Z,99485.84
2023-04-27T15:55:09.922Z,99487.56
2023-04-27T15:56:12.095Z,99484.41
2023-04-27T15:57:14.028Z,99487.69
2023-04-27T15:58:16.810Z,99490.97
2023-04-27T15:59:19.402Z,99487.16
2023-04-27T16:00:22.334Z,99489.88
2023-04-27T16:01:26.037Z,99485.59
2023-04-27T16:02:28.156Z,99485.91
2023-04-27T16:03:30.258Z,99490.78
2023-04-27T16:04:32.415Z,99491.22
2023-04-27T16:05:34.197Z,99493.69
2023-04-27T16:06:37.368Z,99493.69
2023-04-27T16:07:39.955Z,99488.19
2023-04-27T16:08:42.027Z,99487.41
2023-04-27T16:09:43.900Z,99496.31
2023-04-27T16:10:48.011Z,99496.75
2023-04-27T16:11:49.904Z,99492.06
2023-04-27T16:12:51.769Z,99489.25
2023-04-27T16:13:53.554Z,99494.41
2023-04-27T16:14:59.088Z,99492.38
2023-04-27T16:16:01.305Z,99491.72
2023-04-27T16:17:03.381Z,99498.28
2023-04-27T16:18:05.620Z,99495.13
2023-04-27T16:19:08.791Z,99493.56
2023-04-27T16:20:10.771Z,99498.84
2023-04-27T16:21:12.822Z,99506.63
2023-04-27T16:22:14.741Z,99499.09
2023-04-27T16:23:17.133Z,99491.47
2023-04-27T16:24:19.609Z,99494.75
2023-04-27T16:25:21.527Z,99504.41
2023-04-27T16:26:26.551Z,99504.06
2023-04-27T16:27:29.956Z,99496.88
2023-04-27T16:28:32.859Z,99507.81
2023-04-27T16:29:35.368Z,99505.00
2023-04-27T16:30:38.249Z,99494.66
2023-04-27T16:31:42.776Z,99500.75
2023-04-27T16:32:45.038Z,99501.63
2023-04-27T16:33:48.293Z,99496.81
2023-04-27T16:34:50.206Z,99496.81
2023-04-27T16:35:52.492Z,99507.38
2023-04-27T16:36:55.045Z,99503.34
2023-04-27T16:37:56.913Z,99505.50
2023-04-27T16:38:58.836Z,99512.97
2023-04-27T16:40:04.892Z,99510.19
2023-04-27T16:41:07.935Z,99507.84
2023-04-27T16:42:10.198Z,99506.72
2023-04-27T16:43:12.007Z,99508.53
2023-04-27T16:44:14.370Z,99514.16
2023-04-27T16:45:16.346Z,99518.19
2023-04-27T16:46:18.651Z,99515.06
2023-04-27T16:47:20.853Z,99512.72
2023-04-27T16:48:22.759Z,99515.97
2023-04-27T16:49:24.547Z,99511.13
2023-04-27T16:50:27.351Z,99520.00
2023-04-27T16:51:31.096Z,99515.16
2023-04-27T16:52:33.002Z,99521.72
2023-04-27T16:53:34.848Z,99519.78
2023-04-27T16:54:37.105Z,99513.06
2023-04-27T16:55:39.127Z,99517.91
2023-04-27T16:56:41.357Z,99518.50
2023-04-27T16:57:43.112Z,99527.22
2023-04-27T16:58:44.983Z,99524.41
2023-04-27T16:59:47.206Z,99524.53
2023-04-27T17:00:49.088Z,99523.00
2023-04-27T17:01:51.522Z,99528.72
2023-04-27T17:02:53.870Z,99528.25
2023-04-27T17:03:57.772Z,99531.06
2023-04-27T17:05:04.095Z,99531.06
2023-04-27T17:06:18.913Z,99536.75
2023-04-27T17:07:34.771Z,99532.03
2023-04-27T17:08:36.961Z,99535.31
2023-04-27T17:09:39.390Z,99534.53
2023-04-27T17:10:41.737Z,99536.53
2023-04-27T17:11:46.294Z,99532.31
2023-04-27T17:12:48.785Z,99540.38
2023-04-27T17:13:51.701Z,99533.06
2023-04-27T17:14:53.691Z,99537.56
2023-04-27T17:15:55.736Z,99536.44
2023-04-27T17:16:58.063Z,99542.72
2023-04-27T17:18:04.875Z,99531.63
2023-04-27T17:19:06.757Z,99537.69
2023-04-27T17:20:09.661Z,99533.31
2023-04-27T17:21:12.972Z,99537.22
2023-04-27T17:22:14.973Z,99535.75
2023-04-27T17:23:16.841Z,99543.88
2023-04-27T17:24:19.348Z,99541.38
2023-04-27T17:25:21.802Z,99535.91
2023-04-27T17:26:27.319Z,99549.47
2023-04-27T17:27:29.252Z,99539.13
2023-04-27T17:28:31.578Z,99543.16
2023-04-27T17:29:33.590Z,99540.38
2023-04-27T17:30:35.740Z,99542.41
2023-04-27T17:31:38.837Z,99544.84
2023-04-27T17:32:41.283Z,99542.41
2023-04-27T17:33:43.749Z,99543.16
2023-04-27T17:34:46.538Z,99540.06
2023-04-27T17:35:48.390Z,99550.03
2023-04-27T17:36:50.455Z,99548.13
2023-04-27T17:37:53.307Z,99544.44
2023-04-27T17:38:55.248Z,99545.31
2023-04-27T17:39:57.240Z,99542.50
2023-04-27T17:40:59.154Z,99537.47
2023-04-27T17:42:01.540Z,99545.09
2023-04-27T17:43:03.609Z,99549.91
2023-04-27T17:44:05.760Z,99540.75
2023-04-27T17:45:08.487Z,99543.53
2023-04-27T17:46:11.168Z,99536.81
2023-04-27T17:47:13.892Z,99543.66
2023-04-27T17:48:16.462Z,99544.41
2023-04-27T17:49:19.187Z,99541.28
2023-04-27T17:50:21.053Z,99551.72
2023-04-27T17:51:23.443Z,99537.34
2023-04-27T17:52:25.447Z,99541.38
2023-04-27T17:53:27.430Z,99536.03
2023-04-27T17:54:30.183Z,99537.25
2023-04-27T17:55:32.441Z,99542.16
2023-04-27T17:56:35.777Z,99535.13
2023-04-27T17:57:37.653Z,99543.97
2023-04-27T17:58:39.644Z,99539.28
2023-04-27T17:59:41.550Z,99539.63
2023-04-27T18:00:43.831Z,99525.91
2023-04-27T18:01:47.107Z,99536.34
2023-04-27T18:02:49.914Z,99536.81
2023-04-27T18:03:52.350Z,99542.41
2023-04-27T18:04:54.443Z,99538.03
2023-04-27T18:05:56.533Z,99539.28
2023-04-27T18:06:58.698Z,99548.56
2023-04-27T18:08:01.408Z,99541.38
2023-04-27T18:09:03.920Z,99541.06
2023-04-27T18:10:07.642Z,99541.50
2023-04-27T18:11:09.768Z,99542.28
2023-04-27T18:12:12.517Z,99537.13
2023-04-27T18:13:14.669Z,99536.00
2023-04-27T18:14:16.837Z,99537.25
2023-04-27T18:15:19.796Z,99530.72
2023-04-27T18:16:22.058Z,99532.75
2023-04-27T18:17:25.243Z,99534.75
2023-04-27T18:18:28.288Z,99532.75
2023-04-27T18:19:32.284Z,99539.25
2023-04-27T18:20:34.897Z,99542.84
2023-04-27T18:21:38.150Z,99536.91
2023-04-27T18:22:41.942Z,99540.91
2023-04-27T18:23:44.791Z,99539.34
2023-04-27T18:24:47.842Z,99532.31
2023-04-27T18:25:50.474Z,99532.63
2023-04-27T18:26:52.632Z,99530.16
2023-04-27T18:27:56.441Z,99525.03
2023-04-27T18:28:59.825Z,99523.63
2023-04-27T18:30:02.080Z,99527.53
2023-04-27T18:31:21.202Z,99529.91
2023-04-27T18:32:23.269Z,99524.75